Time;durP1;ratioP1;P1;durP2;ratioP2;P2;SDS_P1;SDS_P2;PMS_P1;PMS_P2;Temp;Humidity;BMP_temperature;BMP_pressure;BME280_temperature;BME280_humidity;BME280_pressure;Samples;Min_cycle;Max_cycle;Signal;HPM_P1;HPM_P2
2022/12/22 03:26:27;;;;;;;3.33;1.88;;;5.90;99.90;;;;;;5020700;28;20269;-88
2022/12/22 03:28:55;;;;;;;2.47;1.60;;;5.90;99.90;;;;;;5020861;28;20203;-88
2022/12/22 03:31:22;;;;;;;1.75;1.60;;;5.80;99.90;;;;;;5025529;28;20226;-88
2022/12/22 03:33:50;;;;;;;2.00;1.52;;;5.80;99.90;;;;;;5018097;28;20222;-89
2022/12/22 03:36:17;;;;;;;1.92;1.52;;;5.80;99.90;;;;;;5019759;28;20559;-89
2022/12/22 03:38:44;;;;;;;2.17;1.52;;;5.80;99.90;;;;;;5025127;28;20229;-89
2022/12/22 03:46:28;;;;;;;1.58;1.40;;;5.90;99.90;;;;;;5026244;28;20226;-89
2022/12/22 03:46:41;;;;;;;1.67;1.35;;;5.90;99.90;;;;;;5023280;28;20237;-89
2022/12/22 03:49:10;;;;;;;2.08;1.60;;;6.00;99.90;;;;;;5024483;28;20211;-89
2022/12/22 03:51:38;;;;;;;1.80;1.60;;;6.10;99.90;;;;;;5027664;28;20234;-89
2022/12/22 03:54:06;;;;;;;2.63;1.60;;;6.20;99.90;;;;;;5024931;28;20218;-89
2022/12/22 03:56:32;;;;;;;2.42;1.50;;;6.20;99.90;;;;;;5045168;28;20249;-88
2022/12/22 03:59:00;;;;;;;1.60;1.50;;;6.30;99.90;;;;;;5040247;28;20221;-89
2022/12/22 04:01:26;;;;;;;2.33;1.80;;;6.30;99.90;;;;;;5043183;28;20318;-89
2022/12/22 04:03:53;;;;;;;3.05;1.58;;;6.30;99.90;;;;;;5025169;28;20219;-88
2022/12/22 04:06:22;;;;;;;1.85;1.67;;;6.40;99.90;;;;;;5022707;28;20226;-88
2022/12/22 04:08:48;;;;;;;1.88;1.52;;;6.30;99.90;;;;;;5019611;28;20717;-88
2022/12/22 04:14:09;;;;;;;1.75;1.65;;;6.40;99.90;;;;;;4984820;28;20215;-89
2022/12/22 04:16:36;;;;;;;1.85;1.70;;;6.40;99.90;;;;;;5021302;28;20237;-89
2022/12/22 04:19:05;;;;;;;1.63;1.38;;;6.40;99.90;;;;;;5028498;28;20301;-88
2022/12/22 04:21:33;;;;;;;1.83;1.73;;;6.40;99.90;;;;;;5020111;28;20694;-88
2022/12/22 04:24:00;;;;;;;1.88;1.67;;;6.40;99.90;;;;;;5022164;28;20229;-89
2022/12/22 04:26:28;;;;;;;1.67;1.40;;;6.40;99.90;;;;;;5029561;28;20253;-89
2022/12/22 04:28:55;;;;;;;1.98;1.58;;;6.40;99.90;;;;;;5028523;28;20226;-89
2022/12/22 04:31:23;;;;;;;1.58;1.48;;;6.40;99.90;;;;;;5027711;28;20233;-88
2022/12/22 04:33:50;;;;;;;3.13;1.65;;;6.40;99.90;;;;;;5028292;28;20213;-88
2022/12/22 04:36:17;;;;;;;2.45;1.75;;;6.50;99.90;;;;;;5028349;28;20226;-88
2022/12/22 04:38:45;;;;;;;1.60;1.50;;;6.40;99.90;;;;;;5020415;28;20210;-88
2022/12/22 04:41:12;;;;;;;2.40;1.70;;;6.50;99.90;;;;;;5026035;28;20218;-89
2022/12/22 04:43:39;;;;;;;1.70;1.45;;;6.40;99.90;;;;;;5026767;28;20713;-88
2022/12/22 04:46:07;;;;;;;2.60;1.50;;;6.40;99.90;;;;;;5020724;28;20223;-88
2022/12/22 04:48:34;;;;;;;2.10;1.60;;;6.40;99.90;;;;;;5025194;28;20222;-88
2022/12/22 04:51:01;;;;;;;3.55;1.52;;;6.40;99.90;;;;;;5027038;28;20226;-88
2022/12/22 04:53:29;;;;;;;1.90;1.70;;;6.40;99.90;;;;;;5023278;28;20234;-88
2022/12/22 04:56:00;;;;;;;1.70;1.40;;;6.40;99.90;;;;;;5024827;28;20221;-88
2022/12/22 04:58:28;;;;;;;2.05;1.60;;;6.40;99.90;;;;;;5024580;28;20229;-88
2022/12/22 05:00:55;;;;;;;1.70;1.60;;;6.40;99.90;;;;;;5023904;28;20222;-88
2022/12/22 05:03:22;;;;;;;2.33;1.50;;;6.50;99.90;;;;;;5027750;28;20195;-88
2022/12/22 05:05:50;;;;;;;2.47;1.48;;;6.60;99.90;;;;;;5025473;28;20315;-88
2022/12/22 05:08:16;;;;;;;1.90;1.73;;;6.50;99.90;;;;;;5026130;28;20284;-88
2022/12/22 05:10:43;;;;;;;1.75;1.40;;;6.60;99.90;;;;;;5024094;28;20222;-88
2022/12/22 05:13:11;;;;;;;1.73;1.55;;;6.60;99.90;;;;;;5025045;28;20329;-89
2022/12/22 05:15:38;;;;;;;3.28;1.58;;;6.60;99.90;;;;;;5023654;28;20226;-87
2022/12/22 05:18:06;;;;;;;2.72;1.90;;;6.60;99.90;;;;;;5027962;28;20226;-88
2022/12/22 05:20:34;;;;;;;1.45;1.35;;;6.60;99.90;;;;;;5023679;28;20749;-88
2022/12/22 05:23:01;;;;;;;2.03;1.40;;;6.60;99.90;;;;;;5021739;28;20222;-88
2022/12/22 05:25:28;;;;;;;1.90;1.60;;;6.70;99.90;;;;;;5019654;28;20233;-88
2022/12/22 05:27:55;;;;;;;2.55;1.50;;;6.70;99.90;;;;;;5019714;28;20308;-88
2022/12/22 05:30:24;;;;;;;1.80;1.60;;;6.70;99.90;;;;;;5022046;28;20221;-88
2022/12/22 05:32:51;;;;;;;2.47;1.30;;;6.80;99.90;;;;;;5025564;28;20236;-88
2022/12/22 05:35:17;;;;;;;2.17;1.38;;;6.70;99.90;;;;;;5019067;28;20226;-88
2022/12/22 05:37:44;;;;;;;2.75;1.50;;;6.70;99.90;;;;;;5026446;28;20311;-88
2022/12/22 05:40:12;;;;;;;1.50;1.40;;;6.70;99.90;;;;;;5021707;28;20215;-88
2022/12/22 05:42:39;;;;;;;1.90;1.50;;;6.50;99.90;;;;;;5023220;28;20233;-88
2022/12/22 05:45:11;;;;;;;2.85;2.00;;;6.40;99.90;;;;;;5022016;28;20226;-88
2022/12/22 05:47:39;;;;;;;2.42;1.85;;;6.30;99.90;;;;;;5021105;28;20262;-88
2022/12/22 05:50:08;;;;;;;3.83;1.50;;;6.20;99.90;;;;;;5016702;28;20708;-88
2022/12/22 05:52:35;;;;;;;1.67;1.52;;;6.20;99.90;;;;;;5021463;28;20233;-87
2022/12/22 05:55:02;;;;;;;1.75;1.52;;;6.10;99.90;;;;;;5027956;28;20225;-88
2022/12/22 05:57:29;;;;;;;3.85;1.55;;;6.10;99.90;;;;;;5016975;28;20199;-86
2022/12/22 05:59:55;;;;;;;1.45;1.35;;;6.00;99.90;;;;;;5025237;28;20218;-92
2022/12/22 06:02:22;;;;;;;2.88;1.30;;;6.10;99.90;;;;;;5024877;28;20241;-89
2022/12/22 06:04:51;;;;;;;3.60;1.85;;;6.10;99.90;;;;;;5023007;28;20231;-87
2022/12/22 06:07:18;;;;;;;1.95;1.75;;;6.10;99.90;;;;;;5021840;28;20226;-88
2022/12/22 06:09:45;;;;;;;2.30;1.60;;;6.10;99.90;;;;;;5023559;28;20606;-88
2022/12/22 06:12:12;;;;;;;2.13;1.60;;;6.10;99.90;;;;;;5019577;28;20687;-88
2022/12/22 06:14:38;;;;;;;1.63;1.42;;;6.20;99.90;;;;;;5019501;28;20222;-88
2022/12/22 06:17:05;;;;;;;1.88;1.30;;;6.20;99.90;;;;;;5025618;28;20229;-87
2022/12/22 06:19:33;;;;;;;2.80;1.70;;;6.20;99.90;;;;;;5023938;28;20229;-89
2022/12/22 06:24:42;;;;;;;1.50;1.40;;;6.30;99.90;;;;;;5018634;28;20614;-88
2022/12/22 06:27:09;;;;;;;2.60;1.13;;;6.30;99.90;;;;;;5021876;28;20226;-90
2022/12/22 06:29:36;;;;;;;1.75;1.50;;;6.30;99.90;;;;;;5021080;28;20221;-89
2022/12/22 06:32:04;;;;;;;1.85;1.48;;;6.50;99.90;;;;;;5018332;28;20233;-86
2022/12/22 06:34:30;;;;;;;1.95;1.60;;;6.50;99.90;;;;;;5014446;28;20241;-88
2022/12/22 06:36:57;;;;;;;3.70;1.65;;;6.50;99.90;;;;;;5019514;28;20222;-87
2022/12/22 06:39:26;;;;;;;1.52;1.35;;;6.60;99.90;;;;;;5024116;28;20746;-89
2022/12/22 06:44:37;;;;;;;1.75;1.65;;;6.50;99.90;;;;;;5017184;28;20289;-88
2022/12/22 06:47:04;;;;;;;1.73;1.52;;;6.40;99.90;;;;;;5024351;28;20666;-87
2022/12/22 06:49:31;;;;;;;1.85;1.40;;;6.40;99.90;;;;;;5022635;28;20222;-90
2022/12/22 06:51:58;;;;;;;1.77;1.30;;;6.30;99.90;;;;;;5024913;28;20214;-88
2022/12/22 06:54:26;;;;;;;2.60;1.40;;;6.30;99.90;;;;;;5022197;28;20222;-88
2022/12/22 06:56:53;;;;;;;2.88;1.27;;;6.30;99.90;;;;;;5023091;28;20223;-88
2022/12/22 06:59:20;;;;;;;2.30;1.50;;;6.30;99.90;;;;;;5024569;28;20229;-88
2022/12/22 07:01:47;;;;;;;2.28;1.40;;;6.30;99.90;;;;;;5022615;28;20222;-87
2022/12/22 07:04:18;;;;;;;2.10;1.30;;;6.30;99.90;;;;;;5022642;28;20691;-87
2022/12/22 07:06:45;;;;;;;1.95;1.23;;;6.30;99.90;;;;;;5024507;28;20231;-87
2022/12/22 07:09:12;;;;;;;2.10;1.45;;;6.30;99.90;;;;;;5021994;28;20211;-88
2022/12/22 07:11:40;;;;;;;3.53;1.55;;;6.50;99.90;;;;;;5019765;28;20206;-88
2022/12/22 07:14:07;;;;;;;1.67;1.20;;;6.90;99.90;;;;;;5019023;28;20238;-89
2022/12/22 07:16:36;;;;;;;2.22;1.50;;;7.00;99.90;;;;;;5014126;28;20237;-88
2022/12/22 07:19:03;;;;;;;2.15;1.40;;;7.10;99.90;;;;;;5014100;28;20231;-88
2022/12/22 07:21:30;;;;;;;2.30;1.50;;;7.40;99.90;;;;;;5017017;28;20680;-88
2022/12/22 07:23:58;;;;;;;2.00;1.30;;;7.40;99.90;;;;;;5018351;28;20222;-90
2022/12/22 07:26:24;;;;;;;2.40;0.93;;;7.70;98.90;;;;;;5018508;28;20227;-89
2022/12/22 07:28:53;;;;;;;6.57;1.45;;;7.90;98.30;;;;;;5024811;28;20248;-89
2022/12/22 07:31:20;;;;;;;4.45;1.00;;;8.10;97.90;;;;;;5017814;28;20215;-89
2022/12/22 07:33:46;;;;;;;1.27;1.10;;;8.20;97.50;;;;;;5022548;28;20246;-89
2022/12/22 07:36:15;;;;;;;2.88;1.45;;;8.20;97.30;;;;;;5022177;28;20229;-89
2022/12/22 07:38:44;;;;;;;1.73;1.10;;;8.20;97.40;;;;;;5043363;28;20210;-89
2022/12/22 07:46:42;;;;;;;3.92;1.20;;;8.20;97.20;;;;;;5025095;28;20229;-90
2022/12/22 07:51:56;;;;;;;3.30;1.30;;;8.10;97.60;;;;;;5022373;28;20222;-90
2022/12/22 07:54:23;;;;;;;2.42;1.48;;;8.00;98.00;;;;;;5026360;28;20237;-90
2022/12/22 07:56:50;;;;;;;3.75;1.50;;;7.90;98.30;;;;;;5031564;28;20215;-89
2022/12/22 07:59:27;;;;;;;1.60;1.50;;;7.80;98.80;;;;;;5031595;28;20578;-90
2022/12/22 08:02:14;;;;;;;1.88;1.02;;;7.90;99.50;;;;;;5028124;28;20218;-88
2022/12/22 08:04:41;;;;;;;1.98;1.27;;;7.90;99.00;;;;;;5026097;28;20311;-89
2022/12/22 08:07:08;;;;;;;2.50;1.50;;;8.00;99.10;;;;;;5027729;28;20651;-90
2022/12/22 08:09:35;;;;;;;2.13;1.65;;;7.90;98.80;;;;;;5025476;28;20226;-90
2022/12/22 08:12:01;;;;;;;2.67;1.20;;;7.90;98.80;;;;;;5031338;28;20696;-90
2022/12/22 08:17:10;;;;;;;2.30;1.13;;;8.20;97.70;;;;;;5027782;28;20667;-91
2022/12/22 08:19:37;;;;;;;4.22;1.30;;;8.40;97.10;;;;;;5018918;28;20313;-92
2022/12/22 08:22:04;;;;;;;2.40;1.30;;;8.50;95.80;;;;;;5029525;28;20234;-91
2022/12/22 08:24:31;;;;;;;2.63;1.05;;;8.80;95.80;;;;;;5026769;28;20226;-92
2022/12/22 08:27:01;;;;;;;1.95;0.80;;;8.90;94.80;;;;;;5025963;28;20233;-91
2022/12/22 08:29:36;;;;;;;4.22;1.20;;;9.20;94.10;;;;;;5025418;28;20814;-90
2022/12/22 08:32:24;;;;;;;2.28;0.98;;;9.30;93.30;;;;;;5033117;28;20229;-91
2022/12/22 08:34:52;;;;;;;2.25;1.25;;;9.60;91.00;;;;;;5024633;28;20227;-91
2022/12/22 08:37:23;;;;;;;2.63;1.20;;;9.70;90.60;;;;;;5031625;28;20266;-91
2022/12/22 08:39:53;;;;;;;1.55;1.00;;;9.80;90.60;;;;;;5032184;28;20238;-91
2022/12/22 08:42:23;;;;;;;2.22;1.20;;;9.90;89.70;;;;;;5021683;28;20226;-92
2022/12/22 08:44:52;;;;;;;1.73;0.93;;;10.00;88.40;;;;;;5024352;28;20229;-92
2022/12/22 08:47:19;;;;;;;2.35;1.40;;;10.00;86.80;;;;;;5025621;28;20226;-92
2022/12/22 08:49:46;;;;;;;3.47;1.30;;;10.20;83.10;;;;;;5025880;28;20217;-91
2022/12/22 08:52:13;;;;;;;2.63;1.20;;;10.30;81.00;;;;;;5024007;28;20625;-88
2022/12/22 08:54:40;;;;;;;2.95;1.08;;;10.30;80.90;;;;;;5028474;28;20254;-89
2022/12/22 09:16:30;;;;;;;2.22;0.93;;;10.60;76.00;;;;;;4965560;28;20316;-90
2022/12/22 09:18:57;;;;;;;2.42;1.23;;;10.50;76.10;;;;;;5028885;28;20218;-91
2022/12/22 09:41:53;;;;;;;4.50;1.40;;;10.50;77.40;;;;;;5033851;28;20268;-89
2022/12/22 09:44:25;;;;;;;4.00;1.20;;;10.50;78.30;;;;;;5035583;28;20249;-90
2022/12/22 09:47:52;;;;;;;2.17;1.20;;;10.50;79.00;;;;;;5035639;28;20230;-89
2022/12/22 09:50:22;;;;;;;1.77;1.10;;;10.50;77.80;;;;;;5025174;28;20253;-89
2022/12/22 09:55:55;;;;;;;1.83;1.20;;;10.80;77.80;;;;;;5025716;28;20213;-88
2022/12/22 10:01:18;;;;;;;3.33;1.88;;;11.00;75.30;;;;;;4997370;28;20722;-88
2022/12/22 10:04:14;;;;;;;2.53;1.08;;;10.90;74.00;;;;;;5020295;28;20597;-89
2022/12/22 10:06:47;;;;;;;2.30;1.20;;;11.00;74.10;;;;;;5022938;28;20217;-90
2022/12/22 10:12:13;;;;;;;2.60;1.20;;;11.50;72.40;;;;;;5001068;28;20233;-90
2022/12/22 10:14:43;;;;;;;2.83;1.27;;;11.50;66.20;;;;;;5023104;28;20699;-92
2022/12/22 10:17:18;;;;;;;2.08;1.10;;;11.60;67.00;;;;;;5026111;28;20215;-92
2022/12/22 10:25:42;;;;;;;4.40;1.40;;;11.70;64.30;;;;;;5013252;28;20211;-91
2022/12/22 10:37:02;;;;;;;2.53;1.38;;;11.70;65.60;;;;;;5012513;28;20670;-89
2022/12/22 10:42:35;;;;;;;2.90;1.40;;;11.60;65.30;;;;;;5017246;28;20210;-89
2022/12/22 10:45:04;;;;;;;4.72;1.58;;;11.60;65.30;;;;;;5018397;28;20258;-89
2022/12/22 10:47:31;;;;;;;2.88;1.15;;;11.60;65.40;;;;;;5023295;28;20344;-90
2022/12/22 10:50:00;;;;;;;4.20;1.10;;;11.60;61.60;;;;;;5020065;28;20306;-89
2022/12/22 10:52:28;;;;;;;3.15;1.40;;;11.60;59.70;;;;;;5025579;28;20272;-89
2022/12/22 10:55:14;;;;;;;2.95;1.63;;;11.60;61.30;;;;;;5022122;28;20226;-89
2022/12/22 10:57:41;;;;;;;6.63;2.10;;;11.60;62.20;;;;;;5023013;28;20699;-90
2022/12/22 11:03:56;;;;;;;3.25;1.40;;;11.70;55.80;;;;;;5004126;28;20297;-89
2022/12/22 11:06:24;;;;;;;5.25;1.27;;;11.70;55.20;;;;;;4994128;28;20234;-90
2022/12/22 11:08:51;;;;;;;3.80;1.70;;;11.70;51.30;;;;;;5019638;28;20210;-90
2022/12/22 11:22:56;;;;;;;2.60;1.33;;;11.60;57.70;;;;;;5000026;28;20249;-89
2022/12/22 11:28:27;;;;;;;2.45;1.70;;;11.20;74.40;;;;;;4979742;28;20310;-88
2022/12/22 11:31:35;;;;;;;3.08;1.40;;;10.90;78.70;;;;;;4996399;28;20280;-88
2022/12/22 11:37:08;;;;;;;5.13;1.75;;;10.70;82.80;;;;;;4998216;28;20563;-89
2022/12/22 11:39:42;;;;;;;4.40;1.58;;;10.70;82.00;;;;;;4998392;28;20214;-89
2022/12/22 11:42:29;;;;;;;7.13;1.63;;;10.70;83.30;;;;;;5002362;28;20707;-90
2022/12/22 11:45:03;;;;;;;4.32;1.70;;;10.60;86.00;;;;;;5002722;28;20222;-89
2022/12/22 11:47:43;;;;;;;3.40;1.63;;;10.50;88.70;;;;;;5004529;28;20604;-87
2022/12/22 11:53:19;;;;;;;3.50;1.45;;;10.30;90.10;;;;;;5006763;28;20699;-90
2022/12/22 11:56:03;;;;;;;3.35;1.52;;;10.30;90.10;;;;;;5000268;28;20211;-91
2022/12/22 11:58:44;;;;;;;2.55;1.20;;;10.30;90.40;;;;;;5013587;28;20238;-91
2022/12/22 12:01:27;;;;;;;4.03;1.60;;;10.30;90.40;;;;;;5014122;28;20227;-92
2022/12/22 12:04:25;;;;;;;5.85;1.98;;;10.40;89.70;;;;;;5008169;28;20199;-91
2022/12/22 12:10:14;;;;;;;8.05;1.67;;;10.60;86.00;;;;;;5005979;28;20226;-91
2022/12/22 12:12:49;;;;;;;4.20;1.73;;;10.70;83.00;;;;;;4998584;28;20589;-90
2022/12/22 12:18:33;;;;;;;6.15;2.03;;;10.90;80.00;;;;;;5001728;28;20297;-90
2022/12/22 12:21:20;;;;;;;7.05;1.80;;;11.00;76.90;;;;;;5003347;28;20289;-89
2022/12/22 12:24:03;;;;;;;4.22;1.90;;;11.00;76.90;;;;;;4997985;28;20241;-94
2022/12/22 12:26:39;;;;;;;5.35;1.60;;;11.00;78.10;;;;;;5002285;28;20218;-91
2022/12/22 12:29:16;;;;;;;5.32;1.67;;;10.90;78.40;;;;;;5004619;28;20234;-91
2022/12/22 12:35:00;;;;;;;5.10;1.60;;;10.90;78.40;;;;;;5010230;28;20238;-92
2022/12/22 12:37:31;;;;;;;2.55;1.30;;;11.00;77.00;;;;;;5016947;28;20225;-90
2022/12/22 12:46:39;;;;;;;5.88;1.92;;;11.10;75.60;;;;;;4995284;28;20233;-89
2022/12/22 12:49:45;;;;;;;5.45;1.80;;;11.10;77.30;;;;;;5006240;28;20219;-89
2022/12/22 12:52:12;;;;;;;4.40;1.88;;;11.00;77.60;;;;;;5006750;28;20229;-88
2022/12/22 12:54:40;;;;;;;5.07;1.83;;;11.00;79.30;;;;;;5006608;28;20236;-89
2022/12/22 12:57:24;;;;;;;8.30;1.90;;;11.00;78.50;;;;;;5000302;28;22285;-90
2022/12/22 12:59:52;;;;;;;4.82;2.03;;;11.00;76.20;;;;;;4998601;28;20247;-89
2022/12/22 13:02:33;;;;;;;7.13;1.85;;;11.10;74.30;;;;;;4995819;28;20222;-91
2022/12/22 13:05:02;;;;;;;5.50;1.65;;;11.20;75.00;;;;;;4995689;28;20215;-89
2022/12/22 13:08:11;;;;;;;6.78;1.80;;;11.20;72.30;;;;;;5000653;28;20218;-89
2022/12/22 13:10:42;;;;;;;6.63;2.10;;;11.30;70.10;;;;;;4996958;28;20228;-89
2022/12/22 13:13:48;;;;;;;4.10;1.63;;;11.40;70.20;;;;;;4986500;28;20582;-90
2022/12/22 13:16:29;;;;;;;4.15;1.55;;;11.40;69.60;;;;;;5000033;28;20226;-88
2022/12/22 13:18:58;;;;;;;6.00;2.15;;;11.40;70.30;;;;;;5000952;28;20222;-92
2022/12/22 13:21:28;;;;;;;5.05;1.60;;;11.40;68.60;;;;;;4998757;28;20220;-89
2022/12/22 13:24:01;;;;;;;5.47;1.60;;;11.30;66.70;;;;;;5001401;28;20241;-89
2022/12/22 13:26:32;;;;;;;4.50;1.70;;;11.30;67.20;;;;;;5001804;28;20223;-92
2022/12/22 13:32:03;;;;;;;4.03;1.63;;;11.20;68.60;;;;;;4973267;28;20316;-93
2022/12/22 13:42:55;;;;;;;5.35;2.08;;;11.20;68.00;;;;;;4999074;28;20207;-90
2022/12/22 13:48:21;;;;;;;5.72;1.75;;;11.10;68.30;;;;;;4999567;28;20230;-88
2022/12/22 13:50:51;;;;;;;7.68;2.17;;;11.20;69.00;;;;;;5001844;28;20298;-89
2022/12/22 13:53:25;;;;;;;3.97;1.95;;;11.20;68.20;;;;;;5002701;28;20227;-90
2022/12/22 13:55:53;;;;;;;7.53;2.17;;;11.20;67.00;;;;;;5005618;28;20222;-89
2022/12/22 13:58:27;;;;;;;6.53;2.30;;;11.20;67.60;;;;;;5006207;28;20289;-90
2022/12/22 14:04:02;;;;;;;7.03;2.80;;;11.10;68.60;;;;;;5000119;28;20215;-90
2022/12/22 14:06:31;;;;;;;6.70;2.15;;;11.20;67.80;;;;;;5001735;28;20277;-91
2022/12/22 14:09:12;;;;;;;8.32;2.33;;;11.20;68.20;;;;;;5008326;28;20223;-91
2022/12/22 14:11:40;;;;;;;10.23;2.30;;;11.30;65.60;;;;;;5004380;28;20229;-90
2022/12/22 14:19:37;;;;;;;8.50;2.10;;;11.40;61.20;;;;;;4980817;28;20215;-90
2022/12/22 14:22:08;;;;;;;7.47;2.67;;;11.40;60.90;;;;;;5000863;28;20782;-90
2022/12/22 14:24:41;;;;;;;7.93;2.40;;;11.40;60.60;;;;;;5001353;28;20278;-89
2022/12/22 14:27:17;;;;;;;9.38;2.60;;;11.40;58.70;;;;;;5001551;28;20230;-90
2022/12/22 14:29:44;;;;;;;9.88;2.25;;;11.40;58.90;;;;;;5003452;28;20234;-90
2022/12/22 14:35:22;;;;;;;9.65;2.60;;;11.40;59.80;;;;;;5002723;28;20222;-90
2022/12/22 14:37:51;;;;;;;9.77;2.40;;;11.50;57.90;;;;;;5008074;28;20318;-90
2022/12/22 14:40:29;;;;;;;10.77;2.40;;;11.40;60.00;;;;;;5003686;28;20211;-90
2022/12/22 14:42:58;;;;;;;6.15;2.65;;;11.40;59.00;;;;;;5004785;28;20227;-90
2022/12/22 14:45:25;;;;;;;8.70;2.85;;;11.40;59.20;;;;;;5005065;28;20778;-90
2022/12/22 14:47:55;;;;;;;9.32;2.35;;;11.30;59.80;;;;;;5002064;28;20227;-90
2022/12/22 14:50:47;;;;;;;9.98;2.55;;;11.20;59.60;;;;;;4998453;28;20783;-91
2022/12/22 14:53:25;;;;;;;11.80;2.42;;;11.30;60.30;;;;;;5000600;28;20220;-91
2022/12/22 14:55:53;;;;;;;9.63;2.40;;;11.30;60.80;;;;;;5003332;28;20230;-93
2022/12/22 14:58:24;;;;;;;11.15;2.67;;;11.30;61.30;;;;;;5010795;28;20235;-94
2022/12/22 15:07:07;;;;;;;7.07;2.20;;;11.00;65.00;;;;;;5009356;28;20229;-93
2022/12/22 15:09:34;;;;;;;10.52;2.05;;;11.10;65.60;;;;;;5029568;28;20215;-93
2022/12/22 15:17:57;;;;;;;10.95;2.30;;;11.10;65.50;;;;;;4991553;28;20229;-94
2022/12/22 15:23:12;;;;;;;8.57;2.67;;;11.10;67.80;;;;;;5009736;28;20247;-93
2022/12/22 15:25:42;;;;;;;8.48;2.30;;;11.00;68.70;;;;;;5006366;28;20215;-90
2022/12/22 15:28:09;;;;;;;8.32;2.78;;;11.00;68.50;;;;;;4999638;28;20216;-90
2022/12/22 15:30:37;;;;;;;9.18;2.47;;;11.00;70.10;;;;;;4992063;28;20314;-90
2022/12/22 15:35:53;;;;;;;11.50;2.88;;;11.00;68.00;;;;;;4991379;28;20235;-89
2022/12/22 15:38:22;;;;;;;11.13;2.75;;;11.00;66.70;;;;;;4996387;28;20230;-89
2022/12/22 15:40:50;;;;;;;13.02;2.67;;;11.00;65.80;;;;;;4993356;28;20245;-88
2022/12/22 15:43:17;;;;;;;10.63;2.90;;;11.00;65.10;;;;;;4999811;28;20234;-90
2022/12/22 15:45:45;;;;;;;11.10;2.60;;;11.00;65.60;;;;;;4998716;28;20518;-88
2022/12/22 15:48:18;;;;;;;8.52;2.70;;;11.00;65.30;;;;;;4997059;28;20229;-88
2022/12/22 15:50:45;;;;;;;7.45;2.72;;;11.00;65.70;;;;;;4992791;28;20218;-89
2022/12/22 15:53:16;;;;;;;7.35;2.22;;;11.10;66.30;;;;;;4998051;28;20587;-89
2022/12/22 15:55:45;;;;;;;6.10;2.00;;;11.10;66.10;;;;;;4995003;28;20613;-87
2022/12/22 15:58:15;;;;;;;9.15;2.10;;;11.10;66.70;;;;;;4997482;28;20234;-88
2022/12/22 16:00:42;;;;;;;6.90;2.35;;;11.10;68.80;;;;;;4995118;28;20680;-89
2022/12/22 16:03:10;;;;;;;7.25;2.30;;;11.20;68.00;;;;;;4994055;28;20664;-89
2022/12/22 16:05:38;;;;;;;7.05;2.58;;;11.00;69.00;;;;;;4997868;28;20219;-88
2022/12/22 16:08:09;;;;;;;6.78;2.25;;;11.00;69.00;;;;;;4997500;28;20219;-88
2022/12/22 16:10:38;;;;;;;5.70;2.10;;;11.10;69.60;;;;;;4997599;28;20223;-87
2022/12/22 16:13:05;;;;;;;8.75;2.45;;;10.90;71.60;;;;;;5000074;28;20227;-86
2022/12/22 16:15:34;;;;;;;10.57;2.45;;;10.90;74.00;;;;;;5002180;28;20726;-86
2022/12/22 16:18:02;;;;;;;7.82;1.90;;;10.90;74.00;;;;;;4998691;28;20684;-86
2022/12/22 16:20:32;;;;;;;8.40;2.50;;;10.90;74.00;;;;;;5000622;28;20212;-84
2022/12/22 16:22:59;;;;;;;5.43;2.00;;;10.90;74.10;;;;;;4998560;28;20758;-87
2022/12/22 16:25:32;;;;;;;6.70;2.10;;;10.90;74.00;;;;;;5001375;28;20706;-88
2022/12/22 16:28:01;;;;;;;6.35;1.98;;;10.90;74.00;;;;;;4995217;28;20270;-87
2022/12/22 16:30:31;;;;;;;5.55;1.85;;;10.80;74.00;;;;;;4995806;28;20238;-87
2022/12/22 16:32:58;;;;;;;8.10;2.13;;;10.80;74.00;;;;;;5003598;28;20655;-86
2022/12/22 16:35:27;;;;;;;5.97;2.10;;;10.90;74.00;;;;;;4981589;28;20613;-87
2022/12/22 16:37:57;;;;;;;4.40;1.95;;;10.90;74.00;;;;;;4999022;28;20734;-87
2022/12/22 16:40:25;;;;;;;8.05;2.22;;;10.80;74.00;;;;;;5001463;28;20238;-87
2022/12/22 16:42:59;;;;;;;5.22;1.90;;;10.70;75.00;;;;;;4999905;28;20219;-87
2022/12/22 16:45:30;;;;;;;6.85;1.95;;;10.70;75.10;;;;;;4998673;28;21155;-84
2022/12/22 16:48:00;;;;;;;5.35;2.40;;;10.70;76.10;;;;;;4993644;28;20211;-85
2022/12/22 16:50:32;;;;;;;3.72;1.88;;;10.70;75.10;;;;;;5001324;28;20219;-84
2022/12/22 16:53:00;;;;;;;6.10;2.25;;;10.80;74.00;;;;;;4996370;28;20599;-85
2022/12/22 16:55:27;;;;;;;6.90;1.98;;;10.80;74.00;;;;;;5006738;28;20234;-85
2022/12/22 16:57:55;;;;;;;8.40;2.35;;;10.70;75.40;;;;;;5002785;28;20674;-85
2022/12/22 17:00:24;;;;;;;5.28;2.05;;;10.70;75.20;;;;;;5005600;28;20215;-85
2022/12/22 17:02:56;;;;;;;6.78;2.38;;;10.70;75.90;;;;;;4999213;28;20215;-85
2022/12/22 17:05:27;;;;;;;5.28;2.10;;;10.70;75.10;;;;;;5003292;28;20664;-87
2022/12/22 17:07:55;;;;;;;6.72;2.20;;;10.70;76.30;;;;;;5003094;28;20560;-87
2022/12/22 17:10:23;;;;;;;5.63;1.75;;;10.70;76.60;;;;;;5008031;28;20230;-87
2022/12/22 17:12:52;;;;;;;7.20;2.17;;;10.70;76.40;;;;;;5002499;28;20227;-86
2022/12/22 17:15:21;;;;;;;6.72;1.70;;;10.80;75.50;;;;;;5000959;28;20226;-87
2022/12/22 17:17:49;;;;;;;5.90;1.90;;;10.70;77.00;;;;;;4995923;28;20303;-87
2022/12/22 17:20:19;;;;;;;6.13;2.58;;;10.60;78.00;;;;;;5001221;28;20220;-87
2022/12/22 17:22:49;;;;;;;6.50;2.33;;;10.60;78.00;;;;;;4998554;28;20235;-88
2022/12/22 17:25:19;;;;;;;12.07;2.70;;;10.60;78.20;;;;;;4996445;28;20227;-88
2022/12/22 17:27:46;;;;;;;5.40;2.00;;;10.60;78.90;;;;;;5000553;28;20223;-87
2022/12/22 17:30:17;;;;;;;6.47;2.35;;;10.60;78.80;;;;;;4998791;28;20211;-88
2022/12/22 17:32:44;;;;;;;6.60;1.92;;;10.60;79.80;;;;;;4996488;28;20227;-87
2022/12/22 17:35:13;;;;;;;5.80;2.20;;;10.60;80.10;;;;;;4995572;28;20228;-88
2022/12/22 17:37:42;;;;;;;7.25;2.38;;;10.60;80.50;;;;;;5005605;28;20256;-88
2022/12/22 17:40:15;;;;;;;6.05;2.35;;;10.60;80.70;;;;;;5001122;28;20234;-89
2022/12/22 17:42:42;;;;;;;4.63;2.17;;;10.50;81.30;;;;;;5000162;28;20219;-88
2022/12/22 17:45:13;;;;;;;8.15;2.30;;;10.50;81.80;;;;;;4999349;28;20220;-88
2022/12/22 17:47:40;;;;;;;6.40;2.22;;;10.60;81.70;;;;;;4996137;28;20226;-88
2022/12/22 17:50:10;;;;;;;5.70;2.03;;;10.50;82.00;;;;;;4997657;28;20219;-88
2022/12/22 17:52:37;;;;;;;5.43;1.88;;;10.60;82.50;;;;;;5003227;28;20755;-88
2022/12/22 17:55:07;;;;;;;5.35;2.15;;;10.50;83.00;;;;;;5008353;28;20450;-89
2022/12/22 17:57:36;;;;;;;4.97;1.65;;;10.60;82.80;;;;;;4999825;28;20215;-88
2022/12/22 18:00:04;;;;;;;6.25;2.10;;;10.60;82.90;;;;;;4997596;28;20224;-88
2022/12/22 18:02:30;;;;;;;6.70;2.15;;;10.50;83.30;;;;;;4995386;28;20679;-86
2022/12/22 18:04:57;;;;;;;7.85;2.55;;;10.50;84.10;;;;;;5003525;28;20218;-85
2022/12/22 18:07:25;;;;;;;8.25;5.00;;;10.40;84.80;;;;;;4995040;28;20314;-87
2022/12/22 18:09:58;;;;;;;8.88;2.42;;;10.40;85.20;;;;;;4999726;28;20219;-88
2022/12/22 18:12:30;;;;;;;5.13;2.00;;;10.40;85.00;;;;;;4999795;28;20613;-88
2022/12/22 18:14:57;;;;;;;9.68;2.20;;;10.50;84.70;;;;;;4997728;28;20306;-86
2022/12/22 18:17:26;;;;;;;4.80;1.98;;;10.50;84.70;;;;;;4998132;28;20241;-88
2022/12/22 18:19:53;;;;;;;5.45;1.80;;;10.50;84.30;;;;;;5001547;28;20238;-88
2022/12/22 18:22:22;;;;;;;8.32;3.42;;;10.50;83.90;;;;;;5001374;28;20586;-89
2022/12/22 18:24:50;;;;;;;6.15;2.10;;;10.40;84.80;;;;;;4996525;28;20223;-89
2022/12/22 18:27:18;;;;;;;3.78;2.05;;;10.50;84.50;;;;;;4998279;28;20298;-88
2022/12/22 18:32:34;;;;;;;7.75;2.10;;;10.40;84.40;;;;;;4995973;28;20234;-88
2022/12/22 18:35:01;;;;;;;5.05;1.73;;;10.40;84.10;;;;;;5001701;28;20513;-88
2022/12/22 18:37:28;;;;;;;6.95;2.08;;;10.20;84.70;;;;;;5007113;28;20226;-88
2022/12/22 18:39:55;;;;;;;5.20;2.00;;;10.30;84.70;;;;;;4998978;28;20227;-88
2022/12/22 18:42:23;;;;;;;4.22;2.17;;;10.40;84.10;;;;;;4999553;28;20211;-88
2022/12/22 18:44:52;;;;;;;6.68;2.22;;;10.20;85.40;;;;;;4997262;28;20683;-88
2022/12/22 18:47:19;;;;;;;5.95;2.35;;;10.20;85.10;;;;;;5001386;28;20227;-88
2022/12/22 18:49:46;;;;;;;4.95;2.00;;;10.10;85.80;;;;;;5000224;28;20233;-88
2022/12/22 18:52:17;;;;;;;5.72;2.30;;;10.10;85.50;;;;;;4999890;28;20280;-87
2022/12/22 18:54:44;;;;;;;5.43;2.08;;;10.00;86.10;;;;;;5003154;28;20219;-88
2022/12/22 18:57:13;;;;;;;6.55;2.10;;;9.90;89.00;;;;;;4997755;28;20230;-88
2022/12/22 18:59:40;;;;;;;3.10;1.77;;;9.80;88.90;;;;;;5002170;28;20222;-86
2022/12/22 19:02:21;;;;;;;4.32;2.00;;;9.80;89.50;;;;;;4997369;28;20256;-88
2022/12/22 19:04:48;;;;;;;4.97;2.13;;;9.70;90.00;;;;;;4993458;28;20231;-88
2022/12/22 19:07:17;;;;;;;6.32;2.08;;;9.60;90.50;;;;;;5001314;28;20574;-88
2022/12/22 19:09:44;;;;;;;7.85;2.50;;;9.60;90.60;;;;;;5001672;28;20581;-89
2022/12/22 19:12:16;;;;;;;8.45;2.40;;;9.70;90.30;;;;;;5003418;28;20234;-88
2022/12/22 19:14:44;;;;;;;8.27;2.35;;;9.70;90.60;;;;;;4990851;28;20648;-87
2022/12/22 19:17:14;;;;;;;5.38;2.42;;;9.80;90.30;;;;;;4993131;28;20231;-87
2022/12/22 19:19:42;;;;;;;5.28;2.30;;;9.80;89.90;;;;;;5000037;28;20221;-88
2022/12/22 19:22:13;;;;;;;9.43;2.60;;;9.70;90.30;;;;;;4994222;28;20599;-87
2022/12/22 19:24:40;;;;;;;7.60;2.05;;;9.60;90.60;;;;;;4993471;28;20683;-88
2022/12/22 19:27:13;;;;;;;6.82;2.47;;;9.50;90.60;;;;;;5002803;28;20310;-87